x

Lake Nipissing (45152) Wave Buoy

11:00pm - Mon 24th Jul 2017 All times are CDT. -5 hours from GMT.

  • Sig Wave height 1.0ft
  • Peak Period 3s
  • Wind
    9mph, 11mph gusts
  • Sea Temp 68°f
  • Air Temp 63°f
  • Sea Pressure 1018.7mb
  • Lake Nipissing
  • Lake Nipissing

More Historic Weather Station data

Upgrade to MSW Pro to gain access to the past 30 days of data for over 8000 Wavebouys and Weather Stations around the globe.

Join Pro

Comparision Forecast

View Surf forecast
   
Mon 07/24 11:00pm 1ft 3s 9 11 mph 1018.7mb 68f 63f
10:00pm 0.7ft 2s 13 18 mph 1018.3mb 68f 64f
9:00pm 0.7ft 2s 13 16 mph 1017.8mb 68f 64f
8:00pm 0.7ft 2s 13 16 mph 1017mb 68f 64f
7:00pm 1ft 3s 16 18 mph 1016.3mb 68f 65f
6:00pm 1ft 3s 18 20 mph 1016.2mb 69f 64f
5:00pm 1ft 3s 16 18 mph 1015.4mb 69f 63f
4:00pm 1ft 3s 16 20 mph 1014.8mb 69f 64f
3:00pm  -   -  20
mph
1014.4mb - 64f
2:00pm 1ft 2s 16 20 mph 1014.2mb 69f 63f
1:00pm  -   -  18
mph
1014.2mb 68f 61f
12:00pm  -   -  16
mph
1014.3mb - 60f
10:00am 1.3ft 3s 18 22 mph 1013.7mb 69f 59f
9:00am 1.6ft 3s 20 25 mph 1013mb 68f 59f
8:00am 2ft 3s 22 27 mph 1012.7mb 69f 60f
7:00am 2ft 4s 25 27 mph 1012.2mb 69f 60f
6:00am 2ft 3s 22 27 mph 1011.5mb 69f 61f
5:00am 1.6ft 3s 22 27 mph 1011.1mb 69f 61f
4:00am 1.6ft 3s 22 27 mph 1011.1mb 69f 61f
3:00am 1.6ft 3s 22 27 mph 1011.1mb 69f 61f
2:00am  -   -  18
mph
1012mb - 61f
1:00am 1.3ft 3s 20 22 mph 1011mb 69f 63f
12:00am 1.3ft 3s 20 22 mph 1011.1mb 69f 64f
Sun 07/23 11:00pm 1ft 3s 13 18 mph 1011.6mb 69f 63f
10:00pm 1.6ft 3s 13 16 mph 1011.3mb 69f 65f
9:00pm 1.6ft 3s 16 18 mph 1011mb 69f 64f
8:00pm 1.6ft 3s 18 22 mph 1010.8mb 70f 65f
7:00pm 1.3ft 3s 16 20 mph 1011.3mb 70f 64f
6:00pm 1.3ft 3s 13 16 mph 1011.5mb 70f 63f
5:00pm 1.6ft 3s 9 11 mph 1012.7mb 70f 64f
4:00pm 2ft 3s 20 25 mph 1011.3mb 70f 65f
3:00pm 1.3ft 3s 22 27 mph 1011.4mb 70f 64f
2:00pm 1.3ft 3s 16 18 mph 1011.6mb 70f 65f
1:00pm 1.3ft 3s 13 18 mph 1011.5mb 70f 67f
12:00pm 1.6ft 3s 16 18 mph 1011.9mb 70f 66f
11:00am 1.3ft 3s 16 18 mph 1011.8mb 70f 65f
10:00am 1.3ft 3s 18 20 mph 1011.7mb 70f 65f
9:00am 1.3ft 3s 16 18 mph 1011.8mb 70f 64f
8:00am 1.6ft 3s 16 20 mph 1011.6mb 70f 64f
7:00am 1.6ft 3s 16 18 mph 1011.7mb 71f 64f
6:00am 1.3ft 3s 16 18 mph 1011.2mb 71f 64f
5:00am 1.3ft 3s 16 20 mph 1010.7mb 71f 64f
4:00am 1.3ft 3s 16 18 mph 1010.3mb 71f 65f
3:00am 1.3ft 3s 11 13 mph 1010.5mb 71f 66f
2:00am 1.6ft 3s 13 16 mph 1010.9mb 71f 67f
1:00am 1ft 3s 16 20 mph 1011.1mb 71f 67f
12:00am 1ft 2s 16 18 mph 1011.6mb 71f 67f
Sat 07/22 11:00pm 1ft 2s 13 18 mph 1011.7mb 71f 68f
10:00pm 1ft 2s 11 13 mph 1011.5mb 72f 69f
9:00pm 0.7ft 2s 13 16 mph 1011.2mb 72f 69f
8:00pm 1ft 2s 11 13 mph 1010.8mb 72f 70f
7:00pm 1ft 2s 13 16 mph 1010.9mb 72f 70f
6:00pm 1ft 2s 13 16 mph 1010.7mb 72f 71f
5:00pm  -   -  13
mph
- - -
4:00pm 0.7ft 2s 9 9 mph 1010.7mb 73f 73f
3:00pm 0.7ft 2s 13 13 mph 1010.8mb 73f 73f
2:00pm 0.3ft 2s 11 13 mph 1011.2mb 73f 73f
1:00pm 0.3ft 2s 4 7 mph 1011.6mb 73f 73f
12:00pm 0.7ft 2s 9 9 mph 1012.1mb 72f 72f
11:00am 0.7ft 2s 9 11 mph 1012.4mb 72f 71f
10:00am 0.7ft 2s 9 9 mph 1012.6mb 71f 69f
9:00am 0.7ft 2s 11 13 mph 1012.5mb 71f 68f
8:00am 0.7ft 2s 9 11 mph 1013mb 71f 66f
7:00am 0.7ft 2s 11 13 mph 1012.5mb 71f 67f
6:00am 0.7ft 2s 11 13 mph 1012.4mb 71f 67f
5:00am 0.7ft 2s 11 13 mph 1012.3mb 71f 68f
4:00am 1ft 2s 11 11 mph 1012.6mb 71f 69f
3:00am 1ft 2s 13 16 mph 1011.7mb 71f 69f
2:00am 0.7ft 2s 13 18 mph 1011.5mb 72f 70f
1:00am 0.3ft 2s 13 13 mph 1011.7mb 72f 71f
12:00am 0.3ft 2s 4 4 mph 1012mb 72f 71f
Fri 07/21 11:00pm 0.3ft 2s 4 7 mph 1011.9mb 72f 71f
10:00pm 0.7ft 2s 11 13 mph 1010.9mb 73f 71f
9:00pm 0.7ft 2s 9 13 mph 1011mb 73f 73f
8:00pm 0.7ft 2s 11 13 mph 1010.9mb 73f 75f
7:00pm 0.7ft 2s 11 13 mph 1010.7mb 73f 76f
6:00pm 0.7ft 2s 13 16 mph 1010.9mb 74f 78f
5:00pm 0.3ft 2s 13 16 mph 1010.7mb 74f 79f
4:00pm 0.3ft 2s 7 9 mph 1010.9mb 75f 78f
3:00pm  -  2s 7 9 mph 1011.1mb 76f 78f
2:00pm 0.3ft 2s 2 4 mph 1011.3mb 76f 77f
1:00pm  -  3s 4 4 mph 1011.8mb 75f 76f
12:00pm  -  2s 4 4 mph 1012.3mb 74f 73f
11:00am  -  2s 4 7 mph 1012.4mb 73f 71f
10:00am 0.3ft 2s 4 4 mph 1012.5mb 72f 68f
9:00am 0.3ft 2s 4 4 mph 1012.8mb 71f 66f
8:00am 0.3ft 2s 7 7 mph 1012.7mb 71f 65f
7:00am 0.3ft 2s 4 7 mph 1012.5mb 71f 65f